sensor_id;sensor_type;location;lat;lon;timestamp;temperature;humidity
38241;DHT22;24037;49.536;8.500;2023-03-01T00:00:38;-1.70;99.90
38241;DHT22;24037;49.536;8.500;2023-03-01T00:03:04;-1.80;99.90
38241;DHT22;24037;49.536;8.500;2023-03-01T00:05:30;-1.90;99.90
38241;DHT22;24037;49.536;8.500;2023-03-01T00:07:56;-1.90;99.90
38241;DHT22;24037;49.536;8.500;2023-03-01T00:10:22;-1.90;99.90
38241;DHT22;24037;49.536;8.500;2023-03-01T00:12:48;-2.00;99.90
38241;DHT22;24037;49.536;8.500;2023-03-01T00:15:14;-2.00;99.90
38241;DHT22;24037;49.536;8.500;2023-03-01T00:17:40;-1.90;99.90
38241;DHT22;24037;49.536;8.500;2023-03-01T00:20:06;-1.80;99.90
38241;DHT22;24037;49.536;8.500;2023-03-01T00:22:36;-1.70;99.90
38241;DHT22;24037;49.536;8.500;2023-03-01T00:25:02;-1.60;99.90
38241;DHT22;24037;49.536;8.500;2023-03-01T00:27:28;-1.60;99.90
38241;DHT22;24037;49.536;8.500;2023-03-01T00:29:54;-1.60;99.90
38241;DHT22;24037;49.536;8.500;2023-03-01T00:32:20;-1.50;99.90
38241;DHT22;24037;49.536;8.500;2023-03-01T00:34:46;-1.60;99.90
38241;DHT22;24037;49.536;8.500;2023-03-01T00:37:20;-1.60;99.90
38241;DHT22;24037;49.536;8.500;2023-03-01T00:39:46;-1.60;99.90
38241;DHT22;24037;49.536;8.500;2023-03-01T00:42:12;-1.70;99.90
38241;DHT22;24037;49.536;8.500;2023-03-01T00:44:38;-1.80;99.90
38241;DHT22;24037;49.536;8.500;2023-03-01T00:47:04;-2.00;99.90
38241;DHT22;24037;49.536;8.500;2023-03-01T00:49:31;-2.10;99.90
38241;DHT22;24037;49.536;8.500;2023-03-01T00:51:57;-2.20;99.90
38241;DHT22;24037;49.536;8.500;2023-03-01T00:54:23;-2.30;99.90
38241;DHT22;24037;49.536;8.500;2023-03-01T00:56:49;-2.30;99.90
38241;DHT22;24037;49.536;8.500;2023-03-01T00:59:15;-2.40;99.90
38241;DHT22;24037;49.536;8.500;2023-03-01T01:01:41;-2.40;99.90
38241;DHT22;24037;49.536;8.500;2023-03-01T01:04:08;-2.40;99.90
38241;DHT22;24037;49.536;8.500;2023-03-01T01:06:38;-2.50;99.90
38241;DHT22;24037;49.536;8.500;2023-03-01T01:09:05;-2.50;99.90
38241;DHT22;24037;49.536;8.500;2023-03-01T01:11:32;-2.50;99.90
38241;DHT22;24037;49.536;8.500;2023-03-01T01:13:58;-2.50;99.90
38241;DHT22;24037;49.536;8.500;2023-03-01T01:16:25;-2.60;99.90
38241;DHT22;24037;49.536;8.500;2023-03-01T01:18:52;-2.70;99.90
38241;DHT22;24037;49.536;8.500;2023-03-01T01:21:19;-2.70;99.90
38241;DHT22;24037;49.536;8.500;2023-03-01T01:23:45;-2.70;99.90
38241;DHT22;24037;49.536;8.500;2023-03-01T01:26:13;-2.80;99.90
38241;DHT22;24037;49.536;8.500;2023-03-01T01:28:40;-2.80;99.90
38241;DHT22;24037;49.536;8.500;2023-03-01T01:31:06;-2.70;99.90
38241;DHT22;24037;49.536;8.500;2023-03-01T01:33:32;-2.60;99.90
38241;DHT22;24037;49.536;8.500;2023-03-01T01:35:58;-2.70;99.90
38241;DHT22;24037;49.536;8.500;2023-03-01T01:38:24;-2.80;99.90
38241;DHT22;24037;49.536;8.500;2023-03-01T01:40:51;-2.80;99.90
38241;DHT22;24037;49.536;8.500;2023-03-01T01:43:27;-2.70;99.90
38241;DHT22;24037;49.536;8.500;2023-03-01T01:45:59;-3.00;99.90
38241;DHT22;24037;49.536;8.500;2023-03-01T01:48:28;-2.90;99.90
38241;DHT22;24037;49.536;8.500;2023-03-01T01:51:06;-2.90;99.90
38241;DHT22;24037;49.536;8.500;2023-03-01T01:53:33;-2.90;99.90
38241;DHT22;24037;49.536;8.500;2023-03-01T01:55:59;-2.90;99.90
38241;DHT22;24037;49.536;8.500;2023-03-01T01:58:26;-2.80;99.90
38241;DHT22;24037;49.536;8.500;2023-03-01T02:00:54;-2.90;99.90
38241;DHT22;24037;49.536;8.500;2023-03-01T02:03:22;-3.00;99.90
38241;DHT22;24037;49.536;8.500;2023-03-01T02:06:06;-3.00;99.90
38241;DHT22;24037;49.536;8.500;2023-03-01T02:08:37;-3.10;99.90
38241;DHT22;24037;49.536;8.500;2023-03-01T02:11:04;-3.10;99.90
38241;DHT22;24037;49.536;8.500;2023-03-01T02:13:31;-3.10;99.90
38241;DHT22;24037;49.536;8.500;2023-03-01T02:15:58;-3.20;99.90
38241;DHT22;24037;49.536;8.500;2023-03-01T02:18:24;-3.20;99.90
38241;DHT22;24037;49.536;8.500;2023-03-01T02:20:55;-3.10;99.90
38241;DHT22;24037;49.536;8.500;2023-03-01T02:23:25;-3.20;1.00
38241;DHT22;24037;49.536;8.500;2023-03-01T02:28:30;-2.90;1.00
38241;DHT22;24037;49.536;8.500;2023-03-01T02:30:56;-2.80;99.90
38241;DHT22;24037;49.536;8.500;2023-03-01T02:33:55;-2.70;99.90
38241;DHT22;24037;49.536;8.500;2023-03-01T02:36:22;-2.60;99.90
38241;DHT22;24037;49.536;8.500;2023-03-01T02:38:50;-2.60;99.90
38241;DHT22;24037;49.536;8.500;2023-03-01T02:41:17;-2.50;99.90
38241;DHT22;24037;49.536;8.500;2023-03-01T02:43:45;-2.30;99.90
38241;DHT22;24037;49.536;8.500;2023-03-01T02:46:16;-2.40;99.90
38241;DHT22;24037;49.536;8.500;2023-03-01T02:48:47;-2.50;99.90
38241;DHT22;24037;49.536;8.500;2023-03-01T02:52:01;-2.60;99.90
38241;DHT22;24037;49.536;8.500;2023-03-01T02:56:32;-2.70;99.90
38241;DHT22;24037;49.536;8.500;2023-03-01T02:58:58;-2.70;99.90
38241;DHT22;24037;49.536;8.500;2023-03-01T03:01:27;-2.60;99.90
38241;DHT22;24037;49.536;8.500;2023-03-01T03:04:06;-2.70;99.90
38241;DHT22;24037;49.536;8.500;2023-03-01T03:06:32;-2.80;99.90
38241;DHT22;24037;49.536;8.500;2023-03-01T03:08:59;-2.90;99.90
38241;DHT22;24037;49.536;8.500;2023-03-01T03:11:25;-2.80;99.90
38241;DHT22;24037;49.536;8.500;2023-03-01T03:13:51;-2.80;99.90
38241;DHT22;24037;49.536;8.500;2023-03-01T03:16:18;-2.80;99.90
38241;DHT22;24037;49.536;8.500;2023-03-01T03:18:44;-2.80;99.90
38241;DHT22;24037;49.536;8.500;2023-03-01T03:21:11;-2.80;99.90
38241;DHT22;24037;49.536;8.500;2023-03-01T03:23:37;-2.80;99.90
38241;DHT22;24037;49.536;8.500;2023-03-01T03:26:04;-2.80;99.90
38241;DHT22;24037;49.536;8.500;2023-03-01T03:28:33;-2.90;99.90
38241;DHT22;24037;49.536;8.500;2023-03-01T03:30:59;-2.80;99.90
38241;DHT22;24037;49.536;8.500;2023-03-01T03:33:32;-2.90;99.90
38241;DHT22;24037;49.536;8.500;2023-03-01T03:35:58;-3.00;99.90
38241;DHT22;24037;49.536;8.500;2023-03-01T03:38:24;-3.00;1.00
38241;DHT22;24037;49.536;8.500;2023-03-01T03:41:00;-3.10;1.00
38241;DHT22;24037;49.536;8.500;2023-03-01T03:43:28;-3.10;1.00
38241;DHT22;24037;49.536;8.500;2023-03-01T03:45:54;-3.10;1.00
38241;DHT22;24037;49.536;8.500;2023-03-01T03:48:22;-3.10;1.00
38241;DHT22;24037;49.536;8.500;2023-03-01T03:50:49;-3.00;1.00
38241;DHT22;24037;49.536;8.500;2023-03-01T03:53:15;-3.10;1.00
38241;DHT22;24037;49.536;8.500;2023-03-01T03:55:41;-3.00;1.00
38241;DHT22;24037;49.536;8.500;2023-03-01T03:58:08;-3.00;1.00
38241;DHT22;24037;49.536;8.500;2023-03-01T04:00:34;-3.10;1.00
38241;DHT22;24037;49.536;8.500;2023-03-01T04:03:01;-3.10;1.00
38241;DHT22;24037;49.536;8.500;2023-03-01T04:05:27;-3.00;1.00
38241;DHT22;24037;49.536;8.500;2023-03-01T04:07:53;-3.20;1.00
38241;DHT22;24037;49.536;8.500;2023-03-01T04:10:28;-3.30;1.00
38241;DHT22;24037;49.536;8.500;2023-03-01T04:12:54;-3.20;1.00
38241;DHT22;24037;49.536;8.500;2023-03-01T04:15:21;-3.30;1.00
38241;DHT22;24037;49.536;8.500;2023-03-01T04:17:50;-3.20;1.00
38241;DHT22;24037;49.536;8.500;2023-03-01T04:20:18;-3.10;1.00
38241;DHT22;24037;49.536;8.500;2023-03-01T04:23:03;-2.90;1.00
38241;DHT22;24037;49.536;8.500;2023-03-01T04:25:45;-2.70;1.00
38241;DHT22;24037;49.536;8.500;2023-03-01T04:28:14;-2.50;1.00
38241;DHT22;24037;49.536;8.500;2023-03-01T04:30:40;-2.60;1.00
38241;DHT22;24037;49.536;8.500;2023-03-01T04:33:07;-2.50;99.90
38241;DHT22;24037;49.536;8.500;2023-03-01T04:35:34;-2.20;99.90
38241;DHT22;24037;49.536;8.500;2023-03-01T04:38:00;-1.90;99.90
38241;DHT22;24037;49.536;8.500;2023-03-01T04:40:26;-1.70;99.90
38241;DHT22;24037;49.536;8.500;2023-03-01T04:42:52;-1.60;99.90
38241;DHT22;24037;49.536;8.500;2023-03-01T04:45:18;-1.30;99.90
38241;DHT22;24037;49.536;8.500;2023-03-01T04:47:45;-1.30;99.90
38241;DHT22;24037;49.536;8.500;2023-03-01T04:50:12;-1.10;99.90
38241;DHT22;24037;49.536;8.500;2023-03-01T04:52:38;-0.80;99.90
38241;DHT22;24037;49.536;8.500;2023-03-01T04:55:04;-0.80;99.90
38241;DHT22;24037;49.536;8.500;2023-03-01T04:57:31;-0.80;99.90
38241;DHT22;24037;49.536;8.500;2023-03-01T04:59:57;-0.80;99.90
38241;DHT22;24037;49.536;8.500;2023-03-01T05:02:23;-0.80;99.90
38241;DHT22;24037;49.536;8.500;2023-03-01T05:04:49;-0.70;99.90
38241;DHT22;24037;49.536;8.500;2023-03-01T05:07:15;-0.70;99.90
38241;DHT22;24037;49.536;8.500;2023-03-01T05:09:47;-0.70;99.90
38241;DHT22;24037;49.536;8.500;2023-03-01T05:12:14;-0.70;99.90
38241;DHT22;24037;49.536;8.500;2023-03-01T05:14:40;-0.70;99.90
38241;DHT22;24037;49.536;8.500;2023-03-01T05:17:07;-0.80;99.90
38241;DHT22;24037;49.536;8.500;2023-03-01T05:19:33;-0.80;99.90
38241;DHT22;24037;49.536;8.500;2023-03-01T05:21:59;-0.70;99.90
38241;DHT22;24037;49.536;8.500;2023-03-01T05:24:30;-0.70;99.90
38241;DHT22;24037;49.536;8.500;2023-03-01T05:26:56;-0.60;99.90
38241;DHT22;24037;49.536;8.500;2023-03-01T05:29:22;-0.60;99.90
38241;DHT22;24037;49.536;8.500;2023-03-01T05:31:52;-0.70;99.90
38241;DHT22;24037;49.536;8.500;2023-03-01T05:34:22;-0.60;99.90
38241;DHT22;24037;49.536;8.500;2023-03-01T05:36:48;-0.50;99.90
38241;DHT22;24037;49.536;8.500;2023-03-01T05:39:19;-0.50;99.90
38241;DHT22;24037;49.536;8.500;2023-03-01T05:41:46;-0.50;99.90
38241;DHT22;24037;49.536;8.500;2023-03-01T05:44:13;-0.50;99.90
38241;DHT22;24037;49.536;8.500;2023-03-01T05:46:39;-0.50;99.90
38241;DHT22;24037;49.536;8.500;2023-03-01T05:49:05;-0.50;99.90
38241;DHT22;24037;49.536;8.500;2023-03-01T05:51:31;-0.40;99.90
38241;DHT22;24037;49.536;8.500;2023-03-01T05:53:58;-0.40;99.90
38241;DHT22;24037;49.536;8.500;2023-03-01T05:56:24;-0.30;99.90
38241;DHT22;24037;49.536;8.500;2023-03-01T05:58:49;-0.10;99.90
38241;DHT22;24037;49.536;8.500;2023-03-01T06:01:15;-0.20;99.90
38241;DHT22;24037;49.536;8.500;2023-03-01T06:03:41;-0.10;99.90
38241;DHT22;24037;49.536;8.500;2023-03-01T06:06:08;-0.10;99.90
38241;DHT22;24037;49.536;8.500;2023-03-01T06:08:33;-0.10;99.90
38241;DHT22;24037;49.536;8.500;2023-03-01T06:10:59;-0.10;99.90
38241;DHT22;24037;49.536;8.500;2023-03-01T06:13:25;-0.10;99.90
38241;DHT22;24037;49.536;8.500;2023-03-01T06:15:51;-0.10;99.90
38241;DHT22;24037;49.536;8.500;2023-03-01T06:18:17;-0.10;99.90
38241;DHT22;24037;49.536;8.500;2023-03-01T06:20:43;-0.10;99.90
38241;DHT22;24037;49.536;8.500;2023-03-01T06:23:09;0.00;99.90
38241;DHT22;24037;49.536;8.500;2023-03-01T06:25:35;-0.10;99.90
38241;DHT22;24037;49.536;8.500;2023-03-01T06:28:01;0.00;99.90
38241;DHT22;24037;49.536;8.500;2023-03-01T06:30:27;0.00;99.90
38241;DHT22;24037;49.536;8.500;2023-03-01T06:32:53;0.00;99.90
38241;DHT22;24037;49.536;8.500;2023-03-01T06:35:26;0.10;99.90
38241;DHT22;24037;49.536;8.500;2023-03-01T06:37:55;0.10;99.90
38241;DHT22;24037;49.536;8.500;2023-03-01T06:40:21;0.20;99.90
38241;DHT22;24037;49.536;8.500;2023-03-01T06:42:48;0.20;99.90
38241;DHT22;24037;49.536;8.500;2023-03-01T06:45:14;0.20;99.90
38241;DHT22;24037;49.536;8.500;2023-03-01T06:47:40;0.30;99.90
38241;DHT22;24037;49.536;8.500;2023-03-01T06:50:07;0.40;99.90
38241;DHT22;24037;49.536;8.500;2023-03-01T06:52:33;0.40;99.90
38241;DHT22;24037;49.536;8.500;2023-03-01T06:54:59;0.40;99.90
38241;DHT22;24037;49.536;8.500;2023-03-01T06:57:25;0.50;99.90
38241;DHT22;24037;49.536;8.500;2023-03-01T06:59:51;0.70;99.90
38241;DHT22;24037;49.536;8.500;2023-03-01T07:02:17;1.10;99.90
38241;DHT22;24037;49.536;8.500;2023-03-01T07:04:43;1.50;99.90
38241;DHT22;24037;49.536;8.500;2023-03-01T07:07:09;1.80;99.90
38241;DHT22;24037;49.536;8.500;2023-03-01T07:09:35;1.60;99.90
38241;DHT22;24037;49.536;8.500;2023-03-01T07:12:01;1.80;99.90
38241;DHT22;24037;49.536;8.500;2023-03-01T07:14:28;2.00;99.90
38241;DHT22;24037;49.536;8.500;2023-03-01T07:16:54;2.20;99.90
38241;DHT22;24037;49.536;8.500;2023-03-01T07:19:20;2.20;99.90
38241;DHT22;24037;49.536;8.500;2023-03-01T07:21:46;2.10;99.90
38241;DHT22;24037;49.536;8.500;2023-03-01T07:24:12;1.90;99.90
38241;DHT22;24037;49.536;8.500;2023-03-01T07:26:38;1.90;99.90
38241;DHT22;24037;49.536;8.500;2023-03-01T07:29:04;2.00;99.90
38241;DHT22;24037;49.536;8.500;2023-03-01T07:31:31;1.90;99.90
38241;DHT22;24037;49.536;8.500;2023-03-01T07:33:57;2.10;99.90
38241;DHT22;24037;49.536;8.500;2023-03-01T07:36:23;2.40;99.90
38241;DHT22;24037;49.536;8.500;2023-03-01T07:38:49;2.50;99.90
38241;DHT22;24037;49.536;8.500;2023-03-01T07:41:15;2.90;99.90
38241;DHT22;24037;49.536;8.500;2023-03-01T07:43:41;2.80;99.90
38241;DHT22;24037;49.536;8.500;2023-03-01T07:46:07;3.00;99.90
38241;DHT22;24037;49.536;8.500;2023-03-01T07:48:33;3.40;99.90
38241;DHT22;24037;49.536;8.500;2023-03-01T07:51:03;3.20;99.90
38241;DHT22;24037;49.536;8.500;2023-03-01T07:53:30;3.50;99.90
38241;DHT22;24037;49.536;8.500;2023-03-01T07:56:00;3.70;99.90
38241;DHT22;24037;49.536;8.500;2023-03-01T07:58:26;3.90;99.90
38241;DHT22;24037;49.536;8.500;2023-03-01T08:00:52;4.00;99.90
38241;DHT22;24037;49.536;8.500;2023-03-01T08:03:18;4.10;99.90
38241;DHT22;24037;49.536;8.500;2023-03-01T08:05:44;4.20;99.90
38241;DHT22;24037;49.536;8.500;2023-03-01T08:08:10;4.20;99.90
38241;DHT22;24037;49.536;8.500;2023-03-01T08:10:36;4.50;99.90
38241;DHT22;24037;49.536;8.500;2023-03-01T08:13:02;4.50;99.90
38241;DHT22;24037;49.536;8.500;2023-03-01T08:15:28;4.80;99.90
38241;DHT22;24037;49.536;8.500;2023-03-01T08:17:54;4.50;99.90
38241;DHT22;24037;49.536;8.500;2023-03-01T08:20:20;4.90;99.90
38241;DHT22;24037;49.536;8.500;2023-03-01T08:22:46;4.60;99.90
38241;DHT22;24037;49.536;8.500;2023-03-01T08:25:12;4.30;99.90
38241;DHT22;24037;49.536;8.500;2023-03-01T08:27:38;4.90;99.90
38241;DHT22;24037;49.536;8.500;2023-03-01T08:30:04;5.30;99.90
38241;DHT22;24037;49.536;8.500;2023-03-01T08:32:34;5.10;99.90
38241;DHT22;24037;49.536;8.500;2023-03-01T08:35:00;5.20;99.90
38241;DHT22;24037;49.536;8.500;2023-03-01T08:37:26;5.50;99.90
38241;DHT22;24037;49.536;8.500;2023-03-01T08:39:53;6.10;99.90
38241;DHT22;24037;49.536;8.500;2023-03-01T08:42:20;6.00;99.90
38241;DHT22;24037;49.536;8.500;2023-03-01T08:44:46;5.70;99.90
38241;DHT22;24037;49.536;8.500;2023-03-01T08:47:12;6.30;99.90
38241;DHT22;24037;49.536;8.500;2023-03-01T08:49:38;4.80;99.90
38241;DHT22;24037;49.536;8.500;2023-03-01T08:52:04;5.70;99.90
38241;DHT22;24037;49.536;8.500;2023-03-01T08:54:30;6.00;99.90
38241;DHT22;24037;49.536;8.500;2023-03-01T08:56:56;5.80;99.90
38241;DHT22;24037;49.536;8.500;2023-03-01T08:59:25;5.70;99.90
38241;DHT22;24037;49.536;8.500;2023-03-01T09:01:51;6.30;99.90
38241;DHT22;24037;49.536;8.500;2023-03-01T09:04:17;6.30;99.90
38241;DHT22;24037;49.536;8.500;2023-03-01T09:06:43;6.40;99.90
38241;DHT22;24037;49.536;8.500;2023-03-01T09:09:13;5.90;99.90
38241;DHT22;24037;49.536;8.500;2023-03-01T09:11:40;6.00;99.90
38241;DHT22;24037;49.536;8.500;2023-03-01T09:14:06;6.80;99.90
38241;DHT22;24037;49.536;8.500;2023-03-01T09:16:32;7.10;99.90
38241;DHT22;24037;49.536;8.500;2023-03-01T09:19:01;7.00;99.90
38241;DHT22;24037;49.536;8.500;2023-03-01T09:21:28;5.60;99.90
38241;DHT22;24037;49.536;8.500;2023-03-01T09:23:55;5.90;99.90
38241;DHT22;24037;49.536;8.500;2023-03-01T09:26:21;5.90;99.90
38241;DHT22;24037;49.536;8.500;2023-03-01T09:28:51;5.80;99.90
38241;DHT22;24037;49.536;8.500;2023-03-01T09:31:19;5.30;99.90
38241;DHT22;24037;49.536;8.500;2023-03-01T09:33:46;6.30;99.90
38241;DHT22;24037;49.536;8.500;2023-03-01T09:36:14;6.90;99.90
38241;DHT22;24037;49.536;8.500;2023-03-01T09:38:40;6.80;99.90
38241;DHT22;24037;49.536;8.500;2023-03-01T09:41:10;6.40;99.90
38241;DHT22;24037;49.536;8.500;2023-03-01T09:46:08;7.10;99.90
38241;DHT22;24037;49.536;8.500;2023-03-01T09:48:42;7.40;99.90
38241;DHT22;24037;49.536;8.500;2023-03-01T09:51:09;7.20;99.90
38241;DHT22;24037;49.536;8.500;2023-03-01T09:53:38;7.10;99.90
38241;DHT22;24037;49.536;8.500;2023-03-01T09:56:27;6.70;99.90
38241;DHT22;24037;49.536;8.500;2023-03-01T09:58:56;6.00;99.90
38241;DHT22;24037;49.536;8.500;2023-03-01T10:06:23;5.20;99.90
38241;DHT22;24037;49.536;8.500;2023-03-01T10:08:52;5.10;99.90
38241;DHT22;24037;49.536;8.500;2023-03-01T10:13:50;5.30;99.90
38241;DHT22;24037;49.536;8.500;2023-03-01T10:16:23;5.20;99.90
38241;DHT22;24037;49.536;8.500;2023-03-01T10:18:52;5.10;99.90
38241;DHT22;24037;49.536;8.500;2023-03-01T10:21:19;5.10;99.90
38241;DHT22;24037;49.536;8.500;2023-03-01T10:23:46;5.40;99.90
38241;DHT22;24037;49.536;8.500;2023-03-01T10:26:17;5.30;99.90
38241;DHT22;24037;49.536;8.500;2023-03-01T10:31:25;5.40;99.90
38241;DHT22;24037;49.536;8.500;2023-03-01T10:33:54;5.40;99.90
38241;DHT22;24037;49.536;8.500;2023-03-01T10:36:22;5.60;99.90
38241;DHT22;24037;49.536;8.500;2023-03-01T10:38:56;5.50;99.90
38241;DHT22;24037;49.536;8.500;2023-03-01T10:41:24;5.70;99.90
38241;DHT22;24037;49.536;8.500;2023-03-01T10:44:00;5.70;99.90
38241;DHT22;24037;49.536;8.500;2023-03-01T10:46:33;5.50;99.90
38241;DHT22;24037;49.536;8.500;2023-03-01T10:49:18;5.60;99.90
38241;DHT22;24037;49.536;8.500;2023-03-01T10:51:46;5.70;99.90
38241;DHT22;24037;49.536;8.500;2023-03-01T10:54:31;5.80;99.90
38241;DHT22;24037;49.536;8.500;2023-03-01T10:56:58;5.90;99.90
38241;DHT22;24037;49.536;8.500;2023-03-01T11:04:36;5.90;99.90
38241;DHT22;24037;49.536;8.500;2023-03-01T11:07:02;5.90;99.90
38241;DHT22;24037;49.536;8.500;2023-03-01T11:09:31;6.00;99.90
38241;DHT22;24037;49.536;8.500;2023-03-01T11:12:03;6.10;99.90
38241;DHT22;24037;49.536;8.500;2023-03-01T11:14:33;6.10;99.90
38241;DHT22;24037;49.536;8.500;2023-03-01T11:17:02;6.20;99.90
38241;DHT22;24037;49.536;8.500;2023-03-01T11:19:29;6.30;99.90
38241;DHT22;24037;49.536;8.500;2023-03-01T11:22:11;6.30;99.90
38241;DHT22;24037;49.536;8.500;2023-03-01T11:24:41;6.40;99.90
38241;DHT22;24037;49.536;8.500;2023-03-01T11:30:26;6.60;99.90
38241;DHT22;24037;49.536;8.500;2023-03-01T11:32:35;6.40;99.90
38241;DHT22;24037;49.536;8.500;2023-03-01T11:35:23;6.40;99.90
38241;DHT22;24037;49.536;8.500;2023-03-01T11:38:06;6.50;99.90
38241;DHT22;24037;49.536;8.500;2023-03-01T11:40:39;6.80;99.90
38241;DHT22;24037;49.536;8.500;2023-03-01T11:43:20;7.00;99.90
38241;DHT22;24037;49.536;8.500;2023-03-01T11:51:05;6.60;99.90
38241;DHT22;24037;49.536;8.500;2023-03-01T11:53:48;6.70;99.90
38241;DHT22;24037;49.536;8.500;2023-03-01T12:10:04;6.80;99.90
38241;DHT22;24037;49.536;8.500;2023-03-01T12:12:24;7.10;99.90
38241;DHT22;24037;49.536;8.500;2023-03-01T12:14:56;7.10;99.90
38241;DHT22;24037;49.536;8.500;2023-03-01T12:20:08;7.30;99.90
38241;DHT22;24037;49.536;8.500;2023-03-01T12:33:06;7.50;99.90
38241;DHT22;24037;49.536;8.500;2023-03-01T12:44:07;7.70;99.90
38241;DHT22;24037;49.536;8.500;2023-03-01T12:46:32;7.50;99.90
38241;DHT22;24037;49.536;8.500;2023-03-01T12:49:04;7.70;99.90
38241;DHT22;24037;49.536;8.500;2023-03-01T12:51:34;7.80;99.90
38241;DHT22;24037;49.536;8.500;2023-03-01T12:54:13;7.60;99.90
38241;DHT22;24037;49.536;8.500;2023-03-01T12:56:40;7.60;99.90
38241;DHT22;24037;49.536;8.500;2023-03-01T13:14:53;8.20;99.90
38241;DHT22;24037;49.536;8.500;2023-03-01T13:17:30;8.30;99.90
38241;DHT22;24037;49.536;8.500;2023-03-01T13:19:57;8.30;99.90
38241;DHT22;24037;49.536;8.500;2023-03-01T13:22:30;8.60;99.90
38241;DHT22;24037;49.536;8.500;2023-03-01T13:25:19;8.60;99.90
38241;DHT22;24037;49.536;8.500;2023-03-01T13:27:44;8.30;99.90
38241;DHT22;24037;49.536;8.500;2023-03-01T13:33:15;8.30;99.90
38241;DHT22;24037;49.536;8.500;2023-03-01T13:35:41;8.40;99.90
38241;DHT22;24037;49.536;8.500;2023-03-01T13:43:32;8.40;99.90
38241;DHT22;24037;49.536;8.500;2023-03-01T13:46:00;8.30;99.90
38241;DHT22;24037;49.536;8.500;2023-03-01T13:48:28;8.40;99.90
38241;DHT22;24037;49.536;8.500;2023-03-01T13:50:59;8.40;99.90
38241;DHT22;24037;49.536;8.500;2023-03-01T13:53:27;8.30;99.90
38241;DHT22;24037;49.536;8.500;2023-03-01T13:55:55;8.40;99.90
38241;DHT22;24037;49.536;8.500;2023-03-01T13:58:23;8.60;99.90
38241;DHT22;24037;49.536;8.500;2023-03-01T14:03:23;8.90;99.90
38241;DHT22;24037;49.536;8.500;2023-03-01T14:06:09;8.80;99.90
38241;DHT22;24037;49.536;8.500;2023-03-01T14:08:38;9.00;99.90
38241;DHT22;24037;49.536;8.500;2023-03-01T14:19:32;8.60;99.90
38241;DHT22;24037;49.536;8.500;2023-03-01T14:21:39;8.60;99.90
38241;DHT22;24037;49.536;8.500;2023-03-01T14:24:05;8.80;99.90
38241;DHT22;24037;49.536;8.500;2023-03-01T14:26:31;9.00;99.90
38241;DHT22;24037;49.536;8.500;2023-03-01T14:28:59;9.20;99.90
38241;DHT22;24037;49.536;8.500;2023-03-01T14:31:36;9.10;99.30
38241;DHT22;24037;49.536;8.500;2023-03-01T14:34:02;9.20;98.70
38241;DHT22;24037;49.536;8.500;2023-03-01T14:36:30;9.10;99.70
38241;DHT22;24037;49.536;8.500;2023-03-01T14:38:56;8.90;99.30
38241;DHT22;24037;49.536;8.500;2023-03-01T14:41:27;9.00;99.30
38241;DHT22;24037;49.536;8.500;2023-03-01T14:44:05;9.10;98.80
38241;DHT22;24037;49.536;8.500;2023-03-01T14:46:39;9.00;98.70
38241;DHT22;24037;49.536;8.500;2023-03-01T14:49:29;9.10;98.70
38241;DHT22;24037;49.536;8.500;2023-03-01T14:52:05;8.90;98.30
38241;DHT22;24037;49.536;8.500;2023-03-01T14:54:36;9.00;98.30
38241;DHT22;24037;49.536;8.500;2023-03-01T14:57:03;9.00;98.10
38241;DHT22;24037;49.536;8.500;2023-03-01T14:59:29;9.10;98.20
38241;DHT22;24037;49.536;8.500;2023-03-01T15:01:56;9.20;98.30
38241;DHT22;24037;49.536;8.500;2023-03-01T15:04:23;9.00;98.10
38241;DHT22;24037;49.536;8.500;2023-03-01T15:06:50;9.00;98.40
38241;DHT22;24037;49.536;8.500;2023-03-01T15:09:17;8.90;98.50
38241;DHT22;24037;49.536;8.500;2023-03-01T15:11:43;8.90;98.10
38241;DHT22;24037;49.536;8.500;2023-03-01T15:14:28;8.90;98.00
38241;DHT22;24037;49.536;8.500;2023-03-01T15:16:55;8.90;98.30
38241;DHT22;24037;49.536;8.500;2023-03-01T15:19:21;8.90;98.30
38241;DHT22;24037;49.536;8.500;2023-03-01T15:21:49;9.00;98.60
38241;DHT22;24037;49.536;8.500;2023-03-01T15:24:20;9.10;98.30
38241;DHT22;24037;49.536;8.500;2023-03-01T15:26:52;9.00;98.30
38241;DHT22;24037;49.536;8.500;2023-03-01T15:29:22;9.10;98.50
38241;DHT22;24037;49.536;8.500;2023-03-01T15:32:05;9.10;98.40
38241;DHT22;24037;49.536;8.500;2023-03-01T15:36:58;8.90;98.40
38241;DHT22;24037;49.536;8.500;2023-03-01T15:39:27;8.90;98.30
38241;DHT22;24037;49.536;8.500;2023-03-01T15:41:55;8.80;98.20
38241;DHT22;24037;49.536;8.500;2023-03-01T15:44:25;8.80;98.30
38241;DHT22;24037;49.536;8.500;2023-03-01T15:46:52;8.80;98.10
38241;DHT22;24037;49.536;8.500;2023-03-01T15:49:31;8.80;98.30
38241;DHT22;24037;49.536;8.500;2023-03-01T15:51:58;8.80;98.00
38241;DHT22;24037;49.536;8.500;2023-03-01T15:54:25;8.80;97.90
38241;DHT22;24037;49.536;8.500;2023-03-01T15:56:51;8.80;97.90
38241;DHT22;24037;49.536;8.500;2023-03-01T15:59:17;8.80;98.40
38241;DHT22;24037;49.536;8.500;2023-03-01T16:01:44;8.80;98.00
38241;DHT22;24037;49.536;8.500;2023-03-01T16:04:11;8.80;97.80
38241;DHT22;24037;49.536;8.500;2023-03-01T16:06:42;8.70;97.80
38241;DHT22;24037;49.536;8.500;2023-03-01T16:09:08;8.70;98.00
38241;DHT22;24037;49.536;8.500;2023-03-01T16:11:35;8.70;98.10
38241;DHT22;24037;49.536;8.500;2023-03-01T16:14:02;8.70;98.30
38241;DHT22;24037;49.536;8.500;2023-03-01T16:16:28;8.70;98.30
38241;DHT22;24037;49.536;8.500;2023-03-01T16:18:56;8.60;98.30
38241;DHT22;24037;49.536;8.500;2023-03-01T16:21:23;8.60;98.30
38241;DHT22;24037;49.536;8.500;2023-03-01T16:23:50;8.60;98.80
38241;DHT22;24037;49.536;8.500;2023-03-01T16:26:17;8.50;98.60
38241;DHT22;24037;49.536;8.500;2023-03-01T16:28:44;8.40;98.60
38241;DHT22;24037;49.536;8.500;2023-03-01T16:31:10;8.40;98.80
38241;DHT22;24037;49.536;8.500;2023-03-01T16:33:36;8.30;98.90
38241;DHT22;24037;49.536;8.500;2023-03-01T16:36:06;8.30;98.80
38241;DHT22;24037;49.536;8.500;2023-03-01T16:38:33;8.30;99.10
38241;DHT22;24037;49.536;8.500;2023-03-01T16:41:00;8.20;99.20
38241;DHT22;24037;49.536;8.500;2023-03-01T16:43:26;8.10;99.60
38241;DHT22;24037;49.536;8.500;2023-03-01T16:45:52;8.10;99.80
38241;DHT22;24037;49.536;8.500;2023-03-01T16:48:18;8.00;99.80
38241;DHT22;24037;49.536;8.500;2023-03-01T16:50:44;7.90;99.90
38241;DHT22;24037;49.536;8.500;2023-03-01T16:53:10;7.80;99.90
38241;DHT22;24037;49.536;8.500;2023-03-01T16:55:36;7.70;99.90
38241;DHT22;24037;49.536;8.500;2023-03-01T16:58:03;7.60;99.90
38241;DHT22;24037;49.536;8.500;2023-03-01T17:00:29;7.50;99.90
38241;DHT22;24037;49.536;8.500;2023-03-01T17:02:56;7.40;99.90
38241;DHT22;24037;49.536;8.500;2023-03-01T17:05:22;7.30;99.90
38241;DHT22;24037;49.536;8.500;2023-03-01T17:07:49;7.10;99.90
38241;DHT22;24037;49.536;8.500;2023-03-01T17:10:15;7.00;99.90
38241;DHT22;24037;49.536;8.500;2023-03-01T17:12:41;6.90;99.90
38241;DHT22;24037;49.536;8.500;2023-03-01T17:15:07;6.80;99.90
38241;DHT22;24037;49.536;8.500;2023-03-01T17:17:33;6.80;99.90
38241;DHT22;24037;49.536;8.500;2023-03-01T17:20:00;6.60;99.90
38241;DHT22;24037;49.536;8.500;2023-03-01T17:22:26;6.40;99.90
38241;DHT22;24037;49.536;8.500;2023-03-01T17:24:52;6.40;99.90
38241;DHT22;24037;49.536;8.500;2023-03-01T17:27:18;6.30;99.90
38241;DHT22;24037;49.536;8.500;2023-03-01T17:29:44;6.20;99.90